Airfield :
LOGIN :

Register | Disclaimer

   EN    FR    IT 

 










Legend :    VFR   Marginal VFR   IFR   Intensive IFR   Very Intensive IFR
Visi :
Ceiling :
>= 8 km
>= 3000ft
5 to 8 km
1000 to 3000 ft
1500m to 5 km
500 to 1000 ft
800 to 1500m
200 to 500 ft
< 800m
< 200 ft
Symbols :   Thunderstorms  Fog  Heavy snow  Heavy precipitations  Wind > 20 kt
SIGMETs :     Misc.  Thunderstorms  Icing  Turbulence  Mountain Waves  Volcanic Ashes






- Airport Elevation : 935 ft


EBFS - Florennes

CURRENT METAR :
  • 172041Z AUTO 17009KT 9999 FEW015/// SCT019/// BKN100/// 12/11 Q1010 WHT

EXPIRED METARs :
  • 172025Z AUTO 18010KT 9999 FEW014/// BKN100/// BKN120/// 12/11 Q1010 BLU
  • 171955Z AUTO 18007KT 9999 FEW010/// BKN013/// BKN019/// 12/11 Q1010 GRN
  • 171925Z AUTO 18008KT 9999 FEW007/// BKN011/// BKN038/// 12/12 Q1010 GRN
  • 171855Z AUTO 18009KT 9999 FEW004/// SCT011/// BKN014/// 12/12 Q1010 GRN
  • 171825Z AUTO 18007KT 9999 FEW003/// SCT007/// BKN013/// 12/12 Q1010 GRN
  • 171811Z AUTO 18009KT 9999 FEW003/// SCT005/// BKN013/// 13/12 Q1010 YLO
  • 171755Z AUTO 18007KT 9999 FEW003/// SCT011/// BKN014/// 13/12 Q1010 GRN

TAF TAF EBFS
Valid from the 17 at 19:00 until the 18 at 07:00 UTC


171541Z 1719/1807 21012KT 9999 SCT025 BKN030
BECMG 1721/1723 6000 BKN015 BKN020
BECMG 1800/1803 21012G25KT 4000 -SHRA BKN008 BKN012
BECMG 1803/1806 3200 SHRA BKN004 BKN006



MET'MAP, your aeronautical weather chart ! - Copyright ORBIFLY December 2007 - Disclaimer

ORBIFLY MET'MAP TEAM :

Programming & Development : Alexandra Zaïnal
Concept & Development : Baudouin d'Aumeries
Co-Development & Prog : Marc-Olivier Méhu
Technical & hardware support : Manuel Goepfert

Contact : metmap@orbifly.com




SOURCES & CREDITS :

   NOAA